sensor_id;sensor_type;location;lat;lon;timestamp;pressure;altitude;pressure_sealevel;temperature;humidity
25722;BME280;13578;53.450;15.496;2023-04-25T00:01:55;98591.16;;;8.10;100.00
25722;BME280;13578;53.450;15.496;2023-04-25T00:04:56;98587.00;;;8.06;100.00
25722;BME280;13578;53.450;15.496;2023-04-25T00:07:58;98591.50;;;7.97;100.00
25722;BME280;13578;53.450;15.496;2023-04-25T00:11:00;98577.41;;;8.02;100.00
25722;BME280;13578;53.450;15.496;2023-04-25T00:14:00;98579.81;;;8.05;100.00
25722;BME280;13578;53.450;15.496;2023-04-25T00:17:02;98584.88;;;8.00;100.00
25722;BME280;13578;53.450;15.496;2023-04-25T00:20:05;98573.72;;;7.93;100.00
25722;BME280;13578;53.450;15.496;2023-04-25T00:23:06;98579.47;;;7.90;100.00
25722;BME280;13578;53.450;15.496;2023-04-25T00:26:08;98591.00;;;7.84;100.00
25722;BME280;13578;53.450;15.496;2023-04-25T00:29:08;98579.13;;;7.65;100.00
25722;BME280;13578;53.450;15.496;2023-04-25T00:32:09;98577.31;;;7.56;100.00
25722;BME280;13578;53.450;15.496;2023-04-25T00:35:10;98585.59;;;7.74;100.00
25722;BME280;13578;53.450;15.496;2023-04-25T00:38:11;98582.88;;;7.64;100.00
25722;BME280;13578;53.450;15.496;2023-04-25T00:41:12;98589.94;;;7.57;100.00
25722;BME280;13578;53.450;15.496;2023-04-25T00:44:13;98595.28;;;7.49;100.00
25722;BME280;13578;53.450;15.496;2023-04-25T00:47:15;98592.84;;;7.45;100.00
25722;BME280;13578;53.450;15.496;2023-04-25T00:50:16;98597.19;;;7.38;100.00
25722;BME280;13578;53.450;15.496;2023-04-25T00:53:16;98588.28;;;7.36;100.00
25722;BME280;13578;53.450;15.496;2023-04-25T00:56:17;98594.91;;;7.24;100.00
25722;BME280;13578;53.450;15.496;2023-04-25T00:59:19;98585.84;;;7.23;100.00
25722;BME280;13578;53.450;15.496;2023-04-25T01:02:20;98600.66;;;7.21;100.00
25722;BME280;13578;53.450;15.496;2023-04-25T01:05:21;98601.81;;;7.08;100.00
25722;BME280;13578;53.450;15.496;2023-04-25T01:08:24;98600.25;;;7.06;100.00
25722;BME280;13578;53.450;15.496;2023-04-25T01:11:27;98601.53;;;6.92;100.00
25722;BME280;13578;53.450;15.496;2023-04-25T01:14:28;98594.38;;;6.81;100.00
25722;BME280;13578;53.450;15.496;2023-04-25T01:17:30;98592.06;;;6.76;100.00
25722;BME280;13578;53.450;15.496;2023-04-25T01:20:32;98586.78;;;6.65;100.00
25722;BME280;13578;53.450;15.496;2023-04-25T01:23:34;98585.78;;;6.66;100.00
25722;BME280;13578;53.450;15.496;2023-04-25T01:26:35;98586.06;;;6.63;100.00
25722;BME280;13578;53.450;15.496;2023-04-25T01:29:36;98592.06;;;6.57;100.00
25722;BME280;13578;53.450;15.496;2023-04-25T01:32:37;98579.75;;;6.53;100.00
25722;BME280;13578;53.450;15.496;2023-04-25T01:35:41;98575.72;;;6.37;100.00
25722;BME280;13578;53.450;15.496;2023-04-25T01:38:41;98588.03;;;6.41;100.00
25722;BME280;13578;53.450;15.496;2023-04-25T01:41:45;98588.78;;;6.43;100.00
25722;BME280;13578;53.450;15.496;2023-04-25T01:44:46;98598.81;;;6.53;100.00
25722;BME280;13578;53.450;15.496;2023-04-25T01:47:46;98579.44;;;6.46;100.00
25722;BME280;13578;53.450;15.496;2023-04-25T01:50:49;98570.25;;;6.37;100.00
25722;BME280;13578;53.450;15.496;2023-04-25T01:53:50;98594.94;;;6.45;100.00
25722;BME280;13578;53.450;15.496;2023-04-25T01:56:51;98581.16;;;6.47;100.00
25722;BME280;13578;53.450;15.496;2023-04-25T01:59:55;98578.03;;;6.42;100.00
25722;BME280;13578;53.450;15.496;2023-04-25T02:02:58;98598.09;;;6.50;100.00
25722;BME280;13578;53.450;15.496;2023-04-25T02:05:59;98590.50;;;6.44;100.00
25722;BME280;13578;53.450;15.496;2023-04-25T02:09:00;98581.44;;;6.44;100.00
25722;BME280;13578;53.450;15.496;2023-04-25T02:12:00;98587.63;;;6.56;100.00
25722;BME280;13578;53.450;15.496;2023-04-25T02:15:02;98570.28;;;6.47;100.00
25722;BME280;13578;53.450;15.496;2023-04-25T02:18:03;98564.81;;;6.47;100.00
25722;BME280;13578;53.450;15.496;2023-04-25T02:21:03;98588.34;;;6.58;100.00
25722;BME280;13578;53.450;15.496;2023-04-25T02:24:05;98578.72;;;6.54;100.00
25722;BME280;13578;53.450;15.496;2023-04-25T02:27:06;98574.72;;;6.38;100.00
25722;BME280;13578;53.450;15.496;2023-04-25T02:30:08;98578.88;;;6.42;100.00
25722;BME280;13578;53.450;15.496;2023-04-25T02:33:09;98589.19;;;6.48;100.00
25722;BME280;13578;53.450;15.496;2023-04-25T02:36:10;98583.47;;;6.51;100.00
25722;BME280;13578;53.450;15.496;2023-04-25T02:39:11;98591.50;;;6.63;100.00
25722;BME280;13578;53.450;15.496;2023-04-25T02:42:12;98574.28;;;6.62;100.00
25722;BME280;13578;53.450;15.496;2023-04-25T02:45:13;98583.78;;;6.78;100.00
25722;BME280;13578;53.450;15.496;2023-04-25T02:48:14;98579.59;;;6.64;100.00
25722;BME280;13578;53.450;15.496;2023-04-25T02:51:15;98577.59;;;6.66;100.00
25722;BME280;13578;53.450;15.496;2023-04-25T02:54:16;98580.03;;;6.69;100.00
25722;BME280;13578;53.450;15.496;2023-04-25T02:57:17;98570.25;;;6.76;100.00
25722;BME280;13578;53.450;15.496;2023-04-25T03:00:18;98568.69;;;6.74;100.00
25722;BME280;13578;53.450;15.496;2023-04-25T03:03:18;98573.56;;;6.70;100.00
25722;BME280;13578;53.450;15.496;2023-04-25T03:06:21;98573.28;;;6.73;100.00
25722;BME280;13578;53.450;15.496;2023-04-25T03:09:22;98562.97;;;6.77;100.00
25722;BME280;13578;53.450;15.496;2023-04-25T03:12:23;98553.78;;;6.68;100.00
25722;BME280;13578;53.450;15.496;2023-04-25T03:15:23;98568.81;;;6.92;100.00
25722;BME280;13578;53.450;15.496;2023-04-25T03:18:25;98555.34;;;6.80;100.00
25722;BME280;13578;53.450;15.496;2023-04-25T03:21:26;98547.31;;;6.69;100.00
25722;BME280;13578;53.450;15.496;2023-04-25T03:24:26;98544.13;;;6.83;100.00
25722;BME280;13578;53.450;15.496;2023-04-25T03:27:27;98553.34;;;6.82;100.00
25722;BME280;13578;53.450;15.496;2023-04-25T03:30:28;98553.19;;;6.84;100.00
25722;BME280;13578;53.450;15.496;2023-04-25T03:33:28;98562.94;;;6.87;100.00
25722;BME280;13578;53.450;15.496;2023-04-25T03:36:29;98569.69;;;6.92;100.00
25722;BME280;13578;53.450;15.496;2023-04-25T03:39:29;98550.47;;;6.84;100.00
25722;BME280;13578;53.450;15.496;2023-04-25T03:42:30;98559.50;;;6.84;100.00
25722;BME280;13578;53.450;15.496;2023-04-25T03:45:31;98540.00;;;6.70;100.00
25722;BME280;13578;53.450;15.496;2023-04-25T03:48:31;98552.47;;;6.82;100.00
25722;BME280;13578;53.450;15.496;2023-04-25T03:51:32;98559.66;;;6.83;100.00
25722;BME280;13578;53.450;15.496;2023-04-25T03:54:33;98563.38;;;6.82;100.00
25722;BME280;13578;53.450;15.496;2023-04-25T03:57:33;98563.13;;;6.75;100.00
25722;BME280;13578;53.450;15.496;2023-04-25T04:00:34;98556.06;;;6.82;100.00
25722;BME280;13578;53.450;15.496;2023-04-25T04:03:35;98584.78;;;6.77;100.00
25722;BME280;13578;53.450;15.496;2023-04-25T04:06:36;98574.03;;;6.75;100.00
25722;BME280;13578;53.450;15.496;2023-04-25T04:09:37;98577.44;;;6.77;100.00
25722;BME280;13578;53.450;15.496;2023-04-25T04:12:38;98566.53;;;6.77;100.00
25722;BME280;13578;53.450;15.496;2023-04-25T04:15:38;98590.94;;;6.79;100.00
25722;BME280;13578;53.450;15.496;2023-04-25T04:18:39;98569.84;;;6.81;100.00
25722;BME280;13578;53.450;15.496;2023-04-25T04:21:40;98575.28;;;6.71;100.00
25722;BME280;13578;53.450;15.496;2023-04-25T04:24:40;98579.88;;;6.80;100.00
25722;BME280;13578;53.450;15.496;2023-04-25T04:27:44;98570.56;;;6.63;100.00
25722;BME280;13578;53.450;15.496;2023-04-25T04:30:45;98586.63;;;6.76;100.00
25722;BME280;13578;53.450;15.496;2023-04-25T04:33:47;98591.81;;;6.70;100.00
25722;BME280;13578;53.450;15.496;2023-04-25T04:36:48;98604.44;;;6.80;100.00
25722;BME280;13578;53.450;15.496;2023-04-25T04:39:49;98584.19;;;6.73;100.00
25722;BME280;13578;53.450;15.496;2023-04-25T04:42:50;98595.09;;;6.73;100.00
25722;BME280;13578;53.450;15.496;2023-04-25T04:45:51;98597.25;;;6.79;100.00
25722;BME280;13578;53.450;15.496;2023-04-25T04:48:51;98595.25;;;6.81;100.00
25722;BME280;13578;53.450;15.496;2023-04-25T04:51:53;98602.44;;;6.92;100.00
25722;BME280;13578;53.450;15.496;2023-04-25T04:54:55;98614.91;;;6.95;100.00
25722;BME280;13578;53.450;15.496;2023-04-25T04:57:55;98607.72;;;6.94;100.00
25722;BME280;13578;53.450;15.496;2023-04-25T05:00:56;98620.50;;;7.03;100.00
25722;BME280;13578;53.450;15.496;2023-04-25T05:03:57;98609.16;;;6.88;100.00
25722;BME280;13578;53.450;15.496;2023-04-25T05:07:00;98614.50;;;6.90;100.00
25722;BME280;13578;53.450;15.496;2023-04-25T05:10:01;98609.03;;;6.90;100.00
25722;BME280;13578;53.450;15.496;2023-04-25T05:13:02;98602.44;;;6.82;100.00
25722;BME280;13578;53.450;15.496;2023-04-25T05:16:03;98604.84;;;6.95;100.00
25722;BME280;13578;53.450;15.496;2023-04-25T05:19:03;98609.31;;;6.96;100.00
25722;BME280;13578;53.450;15.496;2023-04-25T05:22:04;98614.03;;;7.04;100.00
25722;BME280;13578;53.450;15.496;2023-04-25T05:25:05;98603.13;;;7.04;100.00
25722;BME280;13578;53.450;15.496;2023-04-25T05:28:07;98624.22;;;7.12;100.00
25722;BME280;13578;53.450;15.496;2023-04-25T05:31:09;98617.03;;;7.11;100.00
25722;BME280;13578;53.450;15.496;2023-04-25T05:34:10;98625.09;;;7.03;100.00
25722;BME280;13578;53.450;15.496;2023-04-25T05:37:11;98615.59;;;6.87;100.00
25722;BME280;13578;53.450;15.496;2023-04-25T05:40:12;98621.78;;;6.99;100.00
25722;BME280;13578;53.450;15.496;2023-04-25T05:43:12;98612.16;;;7.05;100.00
25722;BME280;13578;53.450;15.496;2023-04-25T05:46:13;98627.38;;;7.07;100.00
25722;BME280;13578;53.450;15.496;2023-04-25T05:49:14;98624.53;;;7.19;100.00
25722;BME280;13578;53.450;15.496;2023-04-25T05:52:14;98618.50;;;7.15;100.00
25722;BME280;13578;53.450;15.496;2023-04-25T05:55:15;98624.50;;;7.28;100.00
25722;BME280;13578;53.450;15.496;2023-04-25T05:58:16;98631.53;;;7.31;100.00
25722;BME280;13578;53.450;15.496;2023-04-25T06:01:16;98638.50;;;7.53;100.00
25722;BME280;13578;53.450;15.496;2023-04-25T06:04:17;98640.38;;;7.53;100.00
25722;BME280;13578;53.450;15.496;2023-04-25T06:07:18;98637.38;;;7.56;100.00
25722;BME280;13578;53.450;15.496;2023-04-25T06:10:20;98631.34;;;7.52;100.00
25722;BME280;13578;53.450;15.496;2023-04-25T06:13:21;98633.03;;;7.53;100.00
25722;BME280;13578;53.450;15.496;2023-04-25T06:16:21;98631.03;;;7.55;100.00
25722;BME280;13578;53.450;15.496;2023-04-25T06:19:22;98646.94;;;7.70;100.00
25722;BME280;13578;53.450;15.496;2023-04-25T06:22:23;98631.59;;;7.59;100.00
25722;BME280;13578;53.450;15.496;2023-04-25T06:25:23;98635.75;;;7.73;100.00
25722;BME280;13578;53.450;15.496;2023-04-25T06:28:24;98644.50;;;7.76;100.00
25722;BME280;13578;53.450;15.496;2023-04-25T06:31:25;98644.78;;;7.73;100.00
25722;BME280;13578;53.450;15.496;2023-04-25T06:34:26;98641.66;;;7.68;100.00
25722;BME280;13578;53.450;15.496;2023-04-25T06:37:26;98648.47;;;7.92;100.00
25722;BME280;13578;53.450;15.496;2023-04-25T06:40:27;98644.63;;;7.85;100.00
25722;BME280;13578;53.450;15.496;2023-04-25T06:43:28;98642.69;;;7.95;100.00
25722;BME280;13578;53.450;15.496;2023-04-25T06:46:29;98634.78;;;8.02;100.00
25722;BME280;13578;53.450;15.496;2023-04-25T06:49:29;98637.19;;;8.05;100.00
25722;BME280;13578;53.450;15.496;2023-04-25T06:52:30;98647.56;;;8.01;100.00
25722;BME280;13578;53.450;15.496;2023-04-25T06:55:31;98636.66;;;7.91;100.00
25722;BME280;13578;53.450;15.496;2023-04-25T06:58:32;98640.16;;;7.84;100.00
25722;BME280;13578;53.450;15.496;2023-04-25T07:01:32;98650.97;;;7.75;100.00
25722;BME280;13578;53.450;15.496;2023-04-25T07:04:33;98656.03;;;7.70;100.00
25722;BME280;13578;53.450;15.496;2023-04-25T07:07:33;98658.59;;;7.72;100.00
25722;BME280;13578;53.450;15.496;2023-04-25T07:10:34;98661.13;;;7.93;100.00
25722;BME280;13578;53.450;15.496;2023-04-25T07:13:35;98673.69;;;8.14;100.00
25722;BME280;13578;53.450;15.496;2023-04-25T07:16:36;98658.72;;;8.18;100.00
25722;BME280;13578;53.450;15.496;2023-04-25T07:19:36;98672.19;;;8.29;100.00
25722;BME280;13578;53.450;15.496;2023-04-25T07:22:39;98669.47;;;8.29;100.00
25722;BME280;13578;53.450;15.496;2023-04-25T07:25:39;98667.34;;;8.41;100.00
25722;BME280;13578;53.450;15.496;2023-04-25T07:28:40;98675.09;;;8.46;100.00
25722;BME280;13578;53.450;15.496;2023-04-25T07:31:41;98655.56;;;8.40;100.00
25722;BME280;13578;53.450;15.496;2023-04-25T07:34:41;98669.88;;;8.62;100.00
25722;BME280;13578;53.450;15.496;2023-04-25T07:37:42;98684.38;;;9.09;100.00
25722;BME280;13578;53.450;15.496;2023-04-25T07:40:43;98677.94;;;9.18;100.00
25722;BME280;13578;53.450;15.496;2023-04-25T07:43:43;98687.34;;;9.15;100.00
25722;BME280;13578;53.450;15.496;2023-04-25T07:46:44;98686.50;;;9.15;100.00
25722;BME280;13578;53.450;15.496;2023-04-25T07:49:45;98694.25;;;9.19;100.00
25722;BME280;13578;53.450;15.496;2023-04-25T07:52:45;98696.59;;;9.32;100.00
25722;BME280;13578;53.450;15.496;2023-04-25T07:55:46;98699.00;;;9.35;100.00
25722;BME280;13578;53.450;15.496;2023-04-25T07:58:47;98687.34;;;9.33;100.00
25722;BME280;13578;53.450;15.496;2023-04-25T08:01:47;98683.66;;;9.25;100.00
25722;BME280;13578;53.450;15.496;2023-04-25T08:04:48;98696.16;;;9.45;100.00
25722;BME280;13578;53.450;15.496;2023-04-25T08:07:49;98690.00;;;9.43;100.00
25722;BME280;13578;53.450;15.496;2023-04-25T08:10:50;98690.16;;;9.42;100.00
25722;BME280;13578;53.450;15.496;2023-04-25T08:13:51;98699.88;;;9.36;100.00
25722;BME280;13578;53.450;15.496;2023-04-25T08:16:51;98705.00;;;9.57;100.00
25722;BME280;13578;53.450;15.496;2023-04-25T08:19:52;98708.03;;;9.72;100.00
25722;BME280;13578;53.450;15.496;2023-04-25T08:22:52;98710.09;;;9.52;100.00
25722;BME280;13578;53.450;15.496;2023-04-25T08:25:53;98708.38;;;9.33;100.00
25722;BME280;13578;53.450;15.496;2023-04-25T08:28:53;98714.03;;;9.31;100.00
25722;BME280;13578;53.450;15.496;2023-04-25T08:31:54;98711.59;;;9.28;100.00
25722;BME280;13578;53.450;15.496;2023-04-25T08:34:55;98729.13;;;9.35;100.00
25722;BME280;13578;53.450;15.496;2023-04-25T08:37:55;98715.19;;;9.47;100.00
25722;BME280;13578;53.450;15.496;2023-04-25T08:40:56;98726.16;;;9.47;100.00
25722;BME280;13578;53.450;15.496;2023-04-25T08:44:00;98737.69;;;9.59;100.00
25722;BME280;13578;53.450;15.496;2023-04-25T08:47:04;98733.28;;;9.40;100.00
25722;BME280;13578;53.450;15.496;2023-04-25T08:50:05;98729.81;;;9.37;100.00
25722;BME280;13578;53.450;15.496;2023-04-25T08:53:09;98737.13;;;9.29;100.00
25722;BME280;13578;53.450;15.496;2023-04-25T08:56:12;98745.47;;;9.27;100.00
25722;BME280;13578;53.450;15.496;2023-04-25T08:59:17;98748.81;;;9.21;100.00
25722;BME280;13578;53.450;15.496;2023-04-25T09:02:17;98755.38;;;9.10;100.00
25722;BME280;13578;53.450;15.496;2023-04-25T09:05:21;98748.56;;;9.14;100.00
25722;BME280;13578;53.450;15.496;2023-04-25T09:08:23;98756.94;;;9.13;100.00
25722;BME280;13578;53.450;15.496;2023-04-25T09:11:23;98759.31;;;9.44;100.00
25722;BME280;13578;53.450;15.496;2023-04-25T09:14:24;98762.41;;;9.85;100.00
25722;BME280;13578;53.450;15.496;2023-04-25T09:17:26;98757.25;;;9.82;100.00
25722;BME280;13578;53.450;15.496;2023-04-25T09:20:27;98766.91;;;9.50;100.00
25722;BME280;13578;53.450;15.496;2023-04-25T09:23:28;98773.84;;;9.26;100.00
25722;BME280;13578;53.450;15.496;2023-04-25T09:26:29;98770.50;;;9.32;100.00
25722;BME280;13578;53.450;15.496;2023-04-25T09:29:35;98765.59;;;9.54;100.00
25722;BME280;13578;53.450;15.496;2023-04-25T09:32:36;98763.69;;;9.73;100.00
25722;BME280;13578;53.450;15.496;2023-04-25T09:35:38;98776.97;;;9.85;100.00
25722;BME280;13578;53.450;15.496;2023-04-25T09:38:43;98770.72;;;9.57;100.00
25722;BME280;13578;53.450;15.496;2023-04-25T09:41:44;98783.16;;;9.33;100.00
25722;BME280;13578;53.450;15.496;2023-04-25T09:44:46;98781.06;;;9.27;100.00
25722;BME280;13578;53.450;15.496;2023-04-25T09:47:47;98778.69;;;9.14;100.00
25722;BME280;13578;53.450;15.496;2023-04-25T09:51:10;98787.19;;;8.93;100.00
25722;BME280;13578;53.450;15.496;2023-04-25T09:54:11;98777.97;;;8.94;100.00
25722;BME280;13578;53.450;15.496;2023-04-25T10:00:12;98779.38;;;8.98;100.00
25722;BME280;13578;53.450;15.496;2023-04-25T10:03:13;98790.13;;;9.10;100.00
25722;BME280;13578;53.450;15.496;2023-04-25T10:06:19;98785.75;;;8.89;100.00
25722;BME280;13578;53.450;15.496;2023-04-25T10:09:21;98806.00;;;8.96;100.00
25722;BME280;13578;53.450;15.496;2023-04-25T10:12:26;98792.25;;;8.88;100.00
25722;BME280;13578;53.450;15.496;2023-04-25T10:15:27;98799.34;;;8.81;100.00
25722;BME280;13578;53.450;15.496;2023-04-25T10:18:29;98797.91;;;8.77;100.00
25722;BME280;13578;53.450;15.496;2023-04-25T10:21:31;98807.91;;;8.68;100.00
25722;BME280;13578;53.450;15.496;2023-04-25T10:24:38;98808.34;;;8.63;100.00
25722;BME280;13578;53.450;15.496;2023-04-25T10:27:39;98819.69;;;8.68;100.00
25722;BME280;13578;53.450;15.496;2023-04-25T10:30:59;98825.47;;;8.65;100.00
25722;BME280;13578;53.450;15.496;2023-04-25T10:34:00;98814.47;;;8.75;100.00
25722;BME280;13578;53.450;15.496;2023-04-25T10:37:02;98823.97;;;8.81;100.00
25722;BME280;13578;53.450;15.496;2023-04-25T10:40:10;98813.22;;;8.97;100.00
25722;BME280;13578;53.450;15.496;2023-04-25T10:46:33;98822.47;;;9.14;100.00
25722;BME280;13578;53.450;15.496;2023-04-25T10:49:42;98816.59;;;9.55;100.00
25722;BME280;13578;53.450;15.496;2023-04-25T10:52:43;98821.94;;;9.75;100.00
25722;BME280;13578;53.450;15.496;2023-04-25T10:55:51;98830.53;;;9.80;100.00
25722;BME280;13578;53.450;15.496;2023-04-25T10:58:51;98816.66;;;9.81;100.00
25722;BME280;13578;53.450;15.496;2023-04-25T11:01:52;98818.09;;;9.67;100.00
25722;BME280;13578;53.450;15.496;2023-04-25T11:04:55;98836.09;;;9.88;100.00
25722;BME280;13578;53.450;15.496;2023-04-25T11:07:56;98824.41;;;9.86;100.00
25722;BME280;13578;53.450;15.496;2023-04-25T11:10:59;98811.41;;;10.06;100.00
25722;BME280;13578;53.450;15.496;2023-04-25T11:14:00;98825.94;;;10.07;100.00
25722;BME280;13578;53.450;15.496;2023-04-25T11:17:01;98794.53;;;10.19;100.00
25722;BME280;13578;53.450;15.496;2023-04-25T11:20:02;98771.84;;;10.09;100.00
25722;BME280;13578;53.450;15.496;2023-04-25T11:23:07;98799.91;;;9.84;100.00
25722;BME280;13578;53.450;15.496;2023-04-25T11:26:08;98774.78;;;9.89;100.00
25722;BME280;13578;53.450;15.496;2023-04-25T11:29:08;98782.56;;;9.76;100.00
25722;BME280;13578;53.450;15.496;2023-04-25T11:32:09;98794.09;;;10.06;100.00
25722;BME280;13578;53.450;15.496;2023-04-25T11:35:10;98806.00;;;10.67;100.00
25722;BME280;13578;53.450;15.496;2023-04-25T11:38:11;98792.47;;;10.74;100.00
25722;BME280;13578;53.450;15.496;2023-04-25T11:41:11;98766.31;;;10.27;100.00
25722;BME280;13578;53.450;15.496;2023-04-25T11:44:16;98796.59;;;9.99;100.00
25722;BME280;13578;53.450;15.496;2023-04-25T11:47:16;98776.09;;;9.85;100.00
25722;BME280;13578;53.450;15.496;2023-04-25T11:50:17;98792.47;;;9.95;100.00
25722;BME280;13578;53.450;15.496;2023-04-25T11:53:18;98776.03;;;9.95;100.00
25722;BME280;13578;53.450;15.496;2023-04-25T11:56:20;98776.28;;;9.83;100.00
25722;BME280;13578;53.450;15.496;2023-04-25T11:59:25;98787.41;;;9.82;100.00
25722;BME280;13578;53.450;15.496;2023-04-25T12:02:26;98806.66;;;9.90;100.00
25722;BME280;13578;53.450;15.496;2023-04-25T12:05:29;98806.72;;;9.98;100.00
25722;BME280;13578;53.450;15.496;2023-04-25T12:08:30;98798.97;;;9.94;100.00
25722;BME280;13578;53.450;15.496;2023-04-25T12:11:31;98803.44;;;9.77;100.00
25722;BME280;13578;53.450;15.496;2023-04-25T12:14:34;98818.31;;;9.74;100.00
25722;BME280;13578;53.450;15.496;2023-04-25T12:17:35;98830.63;;;9.70;100.00
25722;BME280;13578;53.450;15.496;2023-04-25T12:20:39;98811.50;;;9.78;100.00
25722;BME280;13578;53.450;15.496;2023-04-25T12:23:40;98832.00;;;9.74;100.00
25722;BME280;13578;53.450;15.496;2023-04-25T12:27:00;98821.69;;;9.68;100.00
25722;BME280;13578;53.450;15.496;2023-04-25T12:30:01;98829.72;;;9.69;100.00
25722;BME280;13578;53.450;15.496;2023-04-25T12:33:02;98837.09;;;9.69;100.00
25722;BME280;13578;53.450;15.496;2023-04-25T12:36:04;98824.34;;;9.60;100.00
25722;BME280;13578;53.450;15.496;2023-04-25T12:39:08;98827.31;;;9.66;100.00
25722;BME280;13578;53.450;15.496;2023-04-25T12:42:15;98819.09;;;9.48;100.00
25722;BME280;13578;53.450;15.496;2023-04-25T12:45:16;98825.50;;;9.57;100.00
25722;BME280;13578;53.450;15.496;2023-04-25T12:48:17;98835.63;;;9.57;100.00
25722;BME280;13578;53.450;15.496;2023-04-25T12:51:18;98818.94;;;9.50;100.00
25722;BME280;13578;53.450;15.496;2023-04-25T12:54:18;98818.94;;;9.50;100.00
25722;BME280;13578;53.450;15.496;2023-04-25T12:57:19;98817.22;;;9.49;100.00
25722;BME280;13578;53.450;15.496;2023-04-25T13:00:20;98832.63;;;9.68;100.00
25722;BME280;13578;53.450;15.496;2023-04-25T13:03:20;98825.44;;;9.67;100.00
25722;BME280;13578;53.450;15.496;2023-04-25T13:06:22;98828.41;;;9.74;100.00
25722;BME280;13578;53.450;15.496;2023-04-25T13:09:23;98781.31;;;9.70;98.92
25722;BME280;13578;53.450;15.496;2023-04-25T13:12:24;98775.91;;;9.60;94.40
25722;BME280;13578;53.450;15.496;2023-04-25T13:15:24;98792.25;;;9.52;96.12
25722;BME280;13578;53.450;15.496;2023-04-25T13:18:25;98805.97;;;9.52;97.10
25722;BME280;13578;53.450;15.496;2023-04-25T13:21:26;98786.53;;;9.45;92.67
25722;BME280;13578;53.450;15.496;2023-04-25T13:24:27;98797.19;;;9.48;92.94
25722;BME280;13578;53.450;15.496;2023-04-25T13:27:27;98790.78;;;9.40;90.89
25722;BME280;13578;53.450;15.496;2023-04-25T13:30:28;98776.84;;;9.33;89.17
25722;BME280;13578;53.450;15.496;2023-04-25T13:33:29;98762.91;;;9.26;86.77
25722;BME280;13578;53.450;15.496;2023-04-25T13:36:30;98784.69;;;9.46;87.69
25722;BME280;13578;53.450;15.496;2023-04-25T13:39:32;98804.59;;;9.38;91.70
25722;BME280;13578;53.450;15.496;2023-04-25T13:42:32;98795.44;;;9.29;88.23
25722;BME280;13578;53.450;15.496;2023-04-25T13:45:33;98829.47;;;9.27;91.42
25722;BME280;13578;53.450;15.496;2023-04-25T13:48:34;98827.50;;;9.19;92.62
25722;BME280;13578;53.450;15.496;2023-04-25T13:51:34;98798.31;;;9.10;87.85
25722;BME280;13578;53.450;15.496;2023-04-25T13:54:35;98807.75;;;8.97;88.71
25722;BME280;13578;53.450;15.496;2023-04-25T13:57:36;98819.09;;;9.02;88.51
25722;BME280;13578;53.450;15.496;2023-04-25T14:00:38;98833.38;;;8.96;92.66
25722;BME280;13578;53.450;15.496;2023-04-25T14:03:39;98824.16;;;8.97;90.44
25722;BME280;13578;53.450;15.496;2023-04-25T14:06:40;98817.88;;;8.87;89.51
25722;BME280;13578;53.450;15.496;2023-04-25T14:09:42;98833.28;;;8.88;90.46
25722;BME280;13578;53.450;15.496;2023-04-25T14:12:42;98842.50;;;8.87;89.49
25722;BME280;13578;53.450;15.496;2023-04-25T14:15:43;98835.03;;;9.07;87.96
25722;BME280;13578;53.450;15.496;2023-04-25T14:18:43;98803.19;;;8.88;83.00
25722;BME280;13578;53.450;15.496;2023-04-25T14:21:44;98843.63;;;8.94;88.51
25722;BME280;13578;53.450;15.496;2023-04-25T14:24:46;98822.25;;;9.08;86.49
25722;BME280;13578;53.450;15.496;2023-04-25T14:27:47;98808.00;;;8.76;82.25
25722;BME280;13578;53.450;15.496;2023-04-25T14:30:50;98847.56;;;8.82;86.34
25722;BME280;13578;53.450;15.496;2023-04-25T14:33:50;98850.16;;;8.83;87.53
25722;BME280;13578;53.450;15.496;2023-04-25T14:36:52;98844.38;;;8.86;86.10
25722;BME280;13578;53.450;15.496;2023-04-25T14:39:52;98865.69;;;8.83;89.10
25722;BME280;13578;53.450;15.496;2023-04-25T14:42:53;98848.75;;;8.69;85.50
25722;BME280;13578;53.450;15.496;2023-04-25T14:45:54;98855.47;;;8.47;86.03
25722;BME280;13578;53.450;15.496;2023-04-25T14:48:54;98886.09;;;8.31;89.70
25722;BME280;13578;53.450;15.496;2023-04-25T14:51:56;98871.03;;;8.17;90.51
25722;BME280;13578;53.450;15.496;2023-04-25T14:54:57;98895.47;;;8.29;92.84
25722;BME280;13578;53.450;15.496;2023-04-25T14:57:57;98905.53;;;8.28;95.68
25722;BME280;13578;53.450;15.496;2023-04-25T15:00:59;98904.38;;;8.31;93.69
25722;BME280;13578;53.450;15.496;2023-04-25T15:03:59;98925.25;;;8.22;95.13
25722;BME280;13578;53.450;15.496;2023-04-25T15:07:00;98905.09;;;8.13;93.19
25722;BME280;13578;53.450;15.496;2023-04-25T15:10:02;98918.50;;;8.16;96.59
25722;BME280;13578;53.450;15.496;2023-04-25T15:13:03;98915.59;;;8.27;95.99
25722;BME280;13578;53.450;15.496;2023-04-25T15:16:04;98917.06;;;8.22;96.98
25722;BME280;13578;53.450;15.496;2023-04-25T15:19:05;98936.63;;;8.27;98.18
25722;BME280;13578;53.450;15.496;2023-04-25T15:22:06;98942.22;;;8.35;100.00
25722;BME280;13578;53.450;15.496;2023-04-25T15:25:08;98926.53;;;8.27;98.10
25722;BME280;13578;53.450;15.496;2023-04-25T15:28:09;98931.56;;;8.22;98.78
25722;BME280;13578;53.450;15.496;2023-04-25T15:31:10;98921.66;;;8.11;96.95
25722;BME280;13578;53.450;15.496;2023-04-25T15:34:10;98938.06;;;8.02;97.91
25722;BME280;13578;53.450;15.496;2023-04-25T15:37:11;98937.75;;;7.95;97.03
25722;BME280;13578;53.450;15.496;2023-04-25T15:40:14;98946.81;;;7.95;99.38
25722;BME280;13578;53.450;15.496;2023-04-25T15:43:15;98922.34;;;7.94;97.11
25722;BME280;13578;53.450;15.496;2023-04-25T15:46:16;98948.72;;;8.15;99.92
25722;BME280;13578;53.450;15.496;2023-04-25T15:49:17;98955.19;;;8.23;100.00
25722;BME280;13578;53.450;15.496;2023-04-25T15:52:18;98938.63;;;8.25;97.99
25722;BME280;13578;53.450;15.496;2023-04-25T15:55:21;98942.94;;;8.27;97.90
25722;BME280;13578;53.450;15.496;2023-04-25T15:58:21;98960.91;;;8.20;100.00